createdAt,value
2023-01-20T00:09:27.514Z,100595.94
2023-01-20T00:19:29.081Z,100607.81
2023-01-20T00:29:30.546Z,100610.47
2023-01-20T00:39:32.194Z,100612.13
2023-01-20T00:49:33.567Z,100630.25
2023-01-20T00:59:34.930Z,100631.78
2023-01-20T01:09:36.363Z,100644.53
2023-01-20T01:19:37.814Z,100649.78
2023-01-20T01:29:39.428Z,100659.09
2023-01-20T01:39:41.317Z,100665.28
2023-01-20T01:49:42.783Z,100670.34
2023-01-20T01:59:44.406Z,100679.63
2023-01-20T02:09:46.409Z,100690.59
2023-01-20T02:20:36.483Z,100698.75
2023-01-20T02:31:15.532Z,100704.84
2023-01-20T02:41:52.976Z,100710.97
2023-01-20T02:52:02.018Z,100719.53
2023-01-20T03:02:15.257Z,100727.19
2023-01-20T03:12:22.414Z,100715.19
2023-01-20T03:22:24.229Z,100725.34
2023-01-20T03:32:26.959Z,100739.06
2023-01-20T03:42:34.315Z,100744.94
2023-01-20T03:52:49.814Z,100755.97
2023-01-20T04:02:55.442Z,100761.94
2023-01-20T04:12:56.985Z,100761.84
2023-01-20T04:22:59.361Z,100774.66
2023-01-20T04:33:00.834Z,100765.50
2023-01-20T04:43:02.253Z,100780.53
2023-01-20T04:53:03.752Z,100779.94
2023-01-20T05:03:06.274Z,100786.84
2023-01-20T05:13:07.843Z,100791.97
2023-01-20T05:23:09.350Z,100806.59
2023-01-20T05:33:11.062Z,100807.41
2023-01-20T05:43:13.147Z,100809.22
2023-01-20T05:53:15.299Z,100819.22
2023-01-20T06:03:16.627Z,100833.63
2023-01-20T06:13:18.015Z,100844.66
2023-01-20T06:23:19.451Z,100854.19
2023-01-20T06:33:20.862Z,100863.25
2023-01-20T06:43:22.390Z,100856.53
2023-01-20T06:53:23.836Z,100866.78
2023-01-20T07:03:25.264Z,100875.63
2023-01-20T07:13:26.606Z,100878.06
2023-01-20T07:23:28.644Z,100889.19
2023-01-20T07:33:30.421Z,100899.38
2023-01-20T07:43:32.350Z,100918.75
2023-01-20T07:53:40.237Z,100942.50
2023-01-20T08:03:43.938Z,100941.78
2023-01-20T08:13:45.638Z,100947.72
2023-01-20T08:23:47.165Z,100966.50
2023-01-20T08:33:52.093Z,100967.59
2023-01-20T08:43:53.861Z,100968.38
2023-01-20T08:53:55.320Z,100989.03
2023-01-20T09:04:06.482Z,100994.06
2023-01-20T09:14:08.339Z,101000.22
2023-01-20T09:24:10.556Z,101001.09
2023-01-20T09:34:19.048Z,101011.41
2023-01-20T09:44:46.745Z,101003.06
2023-01-20T09:54:55.088Z,101015.84
2023-01-20T10:05:05.353Z,101016.09
2023-01-20T10:15:12.966Z,101028.31
2023-01-20T10:25:25.175Z,101023.59
2023-01-20T10:35:29.277Z,101018.78
2023-01-20T10:45:52.673Z,101010.44
2023-01-20T10:56:23.426Z,101020.94
2023-01-20T11:06:26.996Z,101018.69
2023-01-20T11:16:31.471Z,101017.22
2023-01-20T11:26:37.888Z,101013.91
2023-01-20T11:36:39.705Z,101025.22
2023-01-20T11:46:41.210Z,101020.34
2023-01-20T11:56:45.266Z,101023.91
2023-01-20T12:06:54.367Z,101016.28
2023-01-20T12:16:58.689Z,101022.38
2023-01-20T12:27:00.747Z,101026.72
2023-01-20T12:37:20.568Z,101024.41
2023-01-20T12:47:40.753Z,101035.66
2023-01-20T12:57:51.332Z,101035.00
2023-01-20T13:08:02.867Z,101039.25
2023-01-20T13:18:15.036Z,101051.19
2023-01-20T13:28:19.428Z,101049.47
2023-01-20T13:38:30.976Z,101047.88
2023-01-20T13:48:34.348Z,101065.97
2023-01-20T13:58:35.927Z,101067.78
2023-01-20T14:08:40.394Z,101078.91
2023-01-20T14:18:41.982Z,101092.69
2023-01-20T14:28:46.306Z,101101.22
2023-01-20T14:38:58.818Z,101117.16
2023-01-20T14:49:01.581Z,101133.66
2023-01-20T14:59:03.074Z,101150.34
2023-01-20T15:09:25.869Z,101164.09
2023-01-20T15:19:32.084Z,101178.50
2023-01-20T15:29:36.628Z,101197.16
2023-01-20T15:39:38.085Z,101215.69
2023-01-20T15:49:39.520Z,101233.75
2023-01-20T15:59:41.891Z,101259.94
2023-01-20T16:09:44.090Z,101265.88
2023-01-20T16:19:45.452Z,101288.44
2023-01-20T16:29:47.466Z,101302.09
2023-01-20T16:39:48.835Z,101327.84
2023-01-20T16:49:50.221Z,101333.53
2023-01-20T16:59:51.833Z,101355.16
2023-01-20T17:09:53.429Z,101373.25
2023-01-20T17:19:54.897Z,101387.91
2023-01-20T17:29:56.301Z,101405.97
2023-01-20T17:39:59.765Z,101428.72
2023-01-20T17:50:01.115Z,101445.81
2023-01-20T18:00:05.323Z,101458.78
2023-01-20T18:10:06.876Z,101487.06
2023-01-20T18:20:09.886Z,101503.25
2023-01-20T18:30:11.779Z,101519.34
2023-01-20T18:40:14.461Z,101528.84
2023-01-20T18:50:17.183Z,101545.06
2023-01-20T19:00:19.396Z,101545.25
2023-01-20T19:10:20.836Z,101566.22
2023-01-20T19:20:22.728Z,101588.78
2023-01-20T19:30:24.252Z,101610.25
2023-01-20T19:40:25.738Z,101624.47
2023-01-20T19:50:27.141Z,101649.69
2023-01-20T20:00:28.592Z,101659.16
2023-01-20T20:10:30.100Z,101676.34
2023-01-20T20:20:32.761Z,101683.91
2023-01-20T20:30:34.338Z,101708.53
2023-01-20T20:40:35.719Z,101721.06
2023-01-20T20:50:37.216Z,101727.03
2023-01-20T21:00:39.169Z,101746.56
2023-01-20T21:10:41.450Z,101749.63
2023-01-20T21:20:42.940Z,101778.91
2023-01-20T21:30:44.514Z,101797.31
2023-01-20T21:40:59.762Z,101805.13
2023-01-20T21:51:20.035Z,101825.03
2023-01-20T22:01:21.401Z,101838.81
2023-01-20T22:11:24.979Z,101854.75
2023-01-20T22:21:26.655Z,101868.34
2023-01-20T22:31:29.981Z,101878.94
2023-01-20T22:41:31.866Z,101890.56
2023-01-20T22:51:33.326Z,101891.59
2023-01-20T23:01:36.054Z,101912.53
2023-01-20T23:11:39.529Z,101921.75
2023-01-20T23:21:40.895Z,101949.84
2023-01-20T23:31:42.295Z,101977.09
2023-01-20T23:41:43.785Z,101988.03
2023-01-20T23:51:45.162Z,101999.88
